This is the latest recevied weather packets stored in our database for station/object N6ZHV-13. If no packets are shown the sender has not sent any weather packets the latest 1 day(s).
| Time | Temp. | Humidity | Pressure | Rain* | Wind** | Luminosity | Snow |
|---|---|---|---|---|---|---|---|
| 1778037291 | 15° C | 77% | 1017.2 hPa | 0 mm | 1.34 m/s, 233° | - | - |
| 1778036991 | 15° C | 77% | 1017.1 hPa | 0 mm | 1.34 m/s, 226° | - | - |
| 1778036691 | 15° C | 76% | 1017 hPa | 0 mm | 0.45 m/s, 260° | - | - |
| 1778036391 | 15° C | 76% | 1016.8 hPa | 0 mm | 0.45 m/s, 261° | - | - |
| 1778036091 | 15° C | 75% | 1016.7 hPa | 0 mm | 2.24 m/s, 240° | - | - |
| 1778035791 | 15° C | 74% | 1016.6 hPa | 0 mm | 0 m/s | - | - |
| 1778035491 | 15° C | 73% | 1016.4 hPa | 0 mm | 0.89 m/s, 285° | - | - |
| 1778035191 | 15° C | 72% | 1016.3 hPa | 0 mm | 2.68 m/s, 253° | - | - |
| 1778034891 | 15.56° C | 72% | 1016.2 hPa | 0 mm | 2.24 m/s, 250° | - | - |
| 1778034591 | 15.56° C | 72% | 1016.2 hPa | 0 mm | 0.89 m/s, 232° | - | - |
| 1778034291 | 15.56° C | 71% | 1016.1 hPa | 0 mm | 1.79 m/s, 226° | - | - |
| 1778033991 | 15.56° C | 71% | 1016.1 hPa | 0 mm | 0 m/s | - | - |
| 1778033691 | 15.56° C | 71% | 1016 hPa | 0 mm | 0.45 m/s, 281° | - | - |
| 1778033391 | 15.56° C | 70% | 1015.9 hPa | 0 mm | 1.34 m/s, 216° | - | - |
| 1778033091 | 15.56° C | 70% | 1015.8 hPa | 0 mm | 0.45 m/s, 246° | - | - |
| 1778032791 | 16.11° C | 68% | 1015.8 hPa | 0 mm | 1.79 m/s, 264° | - | - |
| 1778032491 | 16.11° C | 66% | 1015.8 hPa | 0 mm | 0.89 m/s, 258° | - | - |
| 1778032191 | 16.67° C | 65% | 1015.7 hPa | 0 mm | 0 m/s | - | - |
| 1778031891 | 16.67° C | 63% | 1015.6 hPa | 0 mm | 0 m/s | - | - |
| 1778031591 | 16.67° C | 63% | 1015.6 hPa | 0 mm | 0 m/s | - | - |
| 1778031291 | 16.11° C | 63% | 1015.5 hPa | 0 mm | 2.68 m/s, 264° | - | - |
| 1778030991 | 16.67° C | 60% | 1015.5 hPa | 0 mm | 0.89 m/s, 323° | - | - |
| 1778030691 | 16.67° C | 62% | 1015.5 hPa | 0 mm | 0.89 m/s, 253° | - | - |
| 1778030391 | 16.67° C | 62% | 1015.5 hPa | 0 mm | 2.24 m/s, 251° | - | - |
| 1778030091 | 16.67° C | 60% | 1015.5 hPa | 0 mm | 1.79 m/s, 240° | - | - |
* Rain latest hour (hover to see other rain measurements)
** Current wind speed in m/s (hover to see current wind gust speed)